sensor_id;sensor_type;location;lat;lon;timestamp;P1;durP1;ratioP1;P2;durP2;ratioP2
14975;SDS011;7584;60.468;25.126;2023-04-06T00:00:19;2.30;;;1.53;;
14975;SDS011;7584;60.468;25.126;2023-04-06T00:02:46;6.37;;;2.37;;
14975;SDS011;7584;60.468;25.126;2023-04-06T00:05:11;2.47;;;1.80;;
14975;SDS011;7584;60.468;25.126;2023-04-06T00:07:37;1.60;;;1.40;;
14975;SDS011;7584;60.468;25.126;2023-04-06T00:10:02;3.67;;;1.57;;
14975;SDS011;7584;60.468;25.126;2023-04-06T00:12:28;4.53;;;1.67;;
14975;SDS011;7584;60.468;25.126;2023-04-06T00:14:53;3.97;;;1.77;;
14975;SDS011;7584;60.468;25.126;2023-04-06T00:17:19;1.90;;;1.40;;
14975;SDS011;7584;60.468;25.126;2023-04-06T00:19:44;3.37;;;1.93;;
14975;SDS011;7584;60.468;25.126;2023-04-06T00:22:10;4.30;;;2.03;;
14975;SDS011;7584;60.468;25.126;2023-04-06T00:24:35;3.10;;;2.03;;
14975;SDS011;7584;60.468;25.126;2023-04-06T00:27:01;2.60;;;1.70;;
14975;SDS011;7584;60.468;25.126;2023-04-06T00:29:26;3.03;;;2.00;;
14975;SDS011;7584;60.468;25.126;2023-04-06T00:31:51;2.10;;;1.57;;
14975;SDS011;7584;60.468;25.126;2023-04-06T00:34:17;2.63;;;1.63;;
14975;SDS011;7584;60.468;25.126;2023-04-06T00:36:42;4.30;;;2.00;;
14975;SDS011;7584;60.468;25.126;2023-04-06T00:39:07;6.23;;;1.90;;
14975;SDS011;7584;60.468;25.126;2023-04-06T00:41:33;3.63;;;1.77;;
14975;SDS011;7584;60.468;25.126;2023-04-06T00:43:58;4.43;;;1.87;;
14975;SDS011;7584;60.468;25.126;2023-04-06T00:46:23;3.20;;;1.43;;
14975;SDS011;7584;60.468;25.126;2023-04-06T00:48:49;3.97;;;1.90;;
14975;SDS011;7584;60.468;25.126;2023-04-06T00:51:14;3.93;;;1.70;;
14975;SDS011;7584;60.468;25.126;2023-04-06T00:53:39;2.90;;;1.70;;
14975;SDS011;7584;60.468;25.126;2023-04-06T00:56:05;7.30;;;2.00;;
14975;SDS011;7584;60.468;25.126;2023-04-06T00:58:30;4.07;;;1.77;;
14975;SDS011;7584;60.468;25.126;2023-04-06T01:00:56;3.27;;;1.87;;
14975;SDS011;7584;60.468;25.126;2023-04-06T01:03:21;4.03;;;2.37;;
14975;SDS011;7584;60.468;25.126;2023-04-06T01:05:47;3.23;;;1.90;;
14975;SDS011;7584;60.468;25.126;2023-04-06T01:08:12;5.27;;;2.17;;
14975;SDS011;7584;60.468;25.126;2023-04-06T01:10:38;4.33;;;1.90;;
14975;SDS011;7584;60.468;25.126;2023-04-06T01:13:03;3.50;;;1.77;;
14975;SDS011;7584;60.468;25.126;2023-04-06T01:15:28;4.13;;;1.70;;
14975;SDS011;7584;60.468;25.126;2023-04-06T01:17:54;4.63;;;1.83;;
14975;SDS011;7584;60.468;25.126;2023-04-06T01:20:20;4.30;;;2.23;;
14975;SDS011;7584;60.468;25.126;2023-04-06T01:22:45;4.33;;;1.83;;
14975;SDS011;7584;60.468;25.126;2023-04-06T01:25:10;2.67;;;1.80;;
14975;SDS011;7584;60.468;25.126;2023-04-06T01:27:36;4.20;;;2.33;;
14975;SDS011;7584;60.468;25.126;2023-04-06T01:30:01;4.03;;;1.80;;
14975;SDS011;7584;60.468;25.126;2023-04-06T01:32:27;5.20;;;1.70;;
14975;SDS011;7584;60.468;25.126;2023-04-06T01:34:52;3.23;;;2.10;;
14975;SDS011;7584;60.468;25.126;2023-04-06T01:37:17;3.53;;;2.00;;
14975;SDS011;7584;60.468;25.126;2023-04-06T01:39:43;2.67;;;1.80;;
14975;SDS011;7584;60.468;25.126;2023-04-06T01:42:08;3.83;;;2.00;;
14975;SDS011;7584;60.468;25.126;2023-04-06T01:44:33;3.53;;;2.00;;
14975;SDS011;7584;60.468;25.126;2023-04-06T01:46:59;3.43;;;1.83;;
14975;SDS011;7584;60.468;25.126;2023-04-06T01:49:24;2.50;;;2.00;;
14975;SDS011;7584;60.468;25.126;2023-04-06T01:51:50;3.37;;;1.90;;
14975;SDS011;7584;60.468;25.126;2023-04-06T01:54:15;4.37;;;2.20;;
14975;SDS011;7584;60.468;25.126;2023-04-06T01:56:40;3.53;;;2.37;;
14975;SDS011;7584;60.468;25.126;2023-04-06T01:59:06;3.47;;;2.23;;
14975;SDS011;7584;60.468;25.126;2023-04-06T02:01:31;3.03;;;1.90;;
14975;SDS011;7584;60.468;25.126;2023-04-06T02:03:56;5.03;;;1.87;;
14975;SDS011;7584;60.468;25.126;2023-04-06T02:06:22;5.50;;;2.67;;
14975;SDS011;7584;60.468;25.126;2023-04-06T02:08:47;7.60;;;2.73;;
14975;SDS011;7584;60.468;25.126;2023-04-06T02:11:12;6.63;;;3.00;;
14975;SDS011;7584;60.468;25.126;2023-04-06T02:13:37;4.93;;;2.30;;
14975;SDS011;7584;60.468;25.126;2023-04-06T02:16:03;3.33;;;2.40;;
14975;SDS011;7584;60.468;25.126;2023-04-06T02:18:30;5.37;;;2.50;;
14975;SDS011;7584;60.468;25.126;2023-04-06T02:20:55;3.53;;;2.20;;
14975;SDS011;7584;60.468;25.126;2023-04-06T02:23:21;3.57;;;2.07;;
14975;SDS011;7584;60.468;25.126;2023-04-06T02:25:46;5.03;;;2.17;;
14975;SDS011;7584;60.468;25.126;2023-04-06T02:28:12;4.47;;;2.23;;
14975;SDS011;7584;60.468;25.126;2023-04-06T02:30:37;3.43;;;2.23;;
14975;SDS011;7584;60.468;25.126;2023-04-06T02:33:02;3.80;;;2.27;;
14975;SDS011;7584;60.468;25.126;2023-04-06T02:35:28;4.00;;;2.13;;
14975;SDS011;7584;60.468;25.126;2023-04-06T02:37:54;4.20;;;2.33;;
14975;SDS011;7584;60.468;25.126;2023-04-06T02:40:19;4.93;;;2.30;;
14975;SDS011;7584;60.468;25.126;2023-04-06T02:42:45;3.93;;;2.27;;
14975;SDS011;7584;60.468;25.126;2023-04-06T02:45:10;4.57;;;2.23;;
14975;SDS011;7584;60.468;25.126;2023-04-06T02:47:35;4.90;;;2.70;;
14975;SDS011;7584;60.468;25.126;2023-04-06T02:50:01;4.97;;;2.80;;
14975;SDS011;7584;60.468;25.126;2023-04-06T02:52:26;3.30;;;2.30;;
14975;SDS011;7584;60.468;25.126;2023-04-06T02:54:52;4.43;;;2.60;;
14975;SDS011;7584;60.468;25.126;2023-04-06T02:57:17;5.67;;;2.60;;
14975;SDS011;7584;60.468;25.126;2023-04-06T02:59:42;4.87;;;2.27;;
14975;SDS011;7584;60.468;25.126;2023-04-06T03:02:08;4.50;;;2.70;;
14975;SDS011;7584;60.468;25.126;2023-04-06T03:04:33;6.90;;;3.03;;
14975;SDS011;7584;60.468;25.126;2023-04-06T03:06:58;3.70;;;2.30;;
14975;SDS011;7584;60.468;25.126;2023-04-06T03:09:23;4.20;;;2.50;;
14975;SDS011;7584;60.468;25.126;2023-04-06T03:11:49;4.70;;;2.60;;
14975;SDS011;7584;60.468;25.126;2023-04-06T03:14:14;5.90;;;2.40;;
14975;SDS011;7584;60.468;25.126;2023-04-06T03:16:42;4.47;;;2.50;;
14975;SDS011;7584;60.468;25.126;2023-04-06T03:19:07;6.03;;;2.63;;
14975;SDS011;7584;60.468;25.126;2023-04-06T03:21:32;4.07;;;2.53;;
14975;SDS011;7584;60.468;25.126;2023-04-06T03:23:58;4.50;;;2.73;;
14975;SDS011;7584;60.468;25.126;2023-04-06T03:26:23;6.97;;;2.83;;
14975;SDS011;7584;60.468;25.126;2023-04-06T03:28:48;7.97;;;2.73;;
14975;SDS011;7584;60.468;25.126;2023-04-06T03:31:14;9.73;;;3.10;;
14975;SDS011;7584;60.468;25.126;2023-04-06T03:33:39;8.37;;;2.83;;
14975;SDS011;7584;60.468;25.126;2023-04-06T03:36:05;7.53;;;3.33;;
14975;SDS011;7584;60.468;25.126;2023-04-06T03:38:30;6.97;;;3.20;;
14975;SDS011;7584;60.468;25.126;2023-04-06T03:40:55;5.30;;;3.10;;
14975;SDS011;7584;60.468;25.126;2023-04-06T03:43:21;7.03;;;3.20;;
14975;SDS011;7584;60.468;25.126;2023-04-06T03:45:46;4.87;;;2.80;;
14975;SDS011;7584;60.468;25.126;2023-04-06T03:48:11;5.00;;;2.90;;
14975;SDS011;7584;60.468;25.126;2023-04-06T03:50:37;9.20;;;2.70;;
14975;SDS011;7584;60.468;25.126;2023-04-06T03:53:02;5.77;;;3.20;;
14975;SDS011;7584;60.468;25.126;2023-04-06T03:55:28;5.17;;;2.80;;
14975;SDS011;7584;60.468;25.126;2023-04-06T03:57:53;6.67;;;3.00;;
14975;SDS011;7584;60.468;25.126;2023-04-06T04:00:18;4.73;;;2.73;;
14975;SDS011;7584;60.468;25.126;2023-04-06T04:02:44;6.97;;;3.70;;
14975;SDS011;7584;60.468;25.126;2023-04-06T04:05:09;5.53;;;3.03;;
14975;SDS011;7584;60.468;25.126;2023-04-06T04:07:35;5.13;;;3.00;;
14975;SDS011;7584;60.468;25.126;2023-04-06T04:10:00;6.23;;;3.90;;
14975;SDS011;7584;60.468;25.126;2023-04-06T04:12:25;5.37;;;3.00;;
14975;SDS011;7584;60.468;25.126;2023-04-06T04:14:50;6.90;;;3.40;;
14975;SDS011;7584;60.468;25.126;2023-04-06T04:17:16;7.80;;;2.97;;
14975;SDS011;7584;60.468;25.126;2023-04-06T04:19:41;5.53;;;3.33;;
14975;SDS011;7584;60.468;25.126;2023-04-06T04:22:06;6.37;;;3.60;;
14975;SDS011;7584;60.468;25.126;2023-04-06T04:24:32;7.27;;;3.33;;
14975;SDS011;7584;60.468;25.126;2023-04-06T04:26:57;5.63;;;3.20;;
14975;SDS011;7584;60.468;25.126;2023-04-06T04:29:23;4.67;;;2.80;;
14975;SDS011;7584;60.468;25.126;2023-04-06T04:31:48;6.33;;;2.83;;
14975;SDS011;7584;60.468;25.126;2023-04-06T04:34:14;5.93;;;3.27;;
14975;SDS011;7584;60.468;25.126;2023-04-06T04:36:40;8.07;;;3.63;;
14975;SDS011;7584;60.468;25.126;2023-04-06T04:39:07;5.83;;;3.17;;
14975;SDS011;7584;60.468;25.126;2023-04-06T04:41:32;5.67;;;2.67;;
14975;SDS011;7584;60.468;25.126;2023-04-06T04:43:57;5.87;;;2.93;;
14975;SDS011;7584;60.468;25.126;2023-04-06T04:46:23;4.63;;;3.10;;
14975;SDS011;7584;60.468;25.126;2023-04-06T04:48:48;7.20;;;3.10;;
14975;SDS011;7584;60.468;25.126;2023-04-06T04:51:13;5.27;;;2.63;;
14975;SDS011;7584;60.468;25.126;2023-04-06T04:53:38;10.23;;;3.23;;
14975;SDS011;7584;60.468;25.126;2023-04-06T04:56:04;7.70;;;3.50;;
14975;SDS011;7584;60.468;25.126;2023-04-06T04:58:29;4.07;;;2.63;;
14975;SDS011;7584;60.468;25.126;2023-04-06T05:00:55;10.03;;;2.93;;
14975;SDS011;7584;60.468;25.126;2023-04-06T05:03:24;5.03;;;2.97;;
14975;SDS011;7584;60.468;25.126;2023-04-06T05:05:50;6.07;;;3.00;;
14975;SDS011;7584;60.468;25.126;2023-04-06T05:08:16;6.83;;;3.33;;
14975;SDS011;7584;60.468;25.126;2023-04-06T05:10:41;4.97;;;2.83;;
14975;SDS011;7584;60.468;25.126;2023-04-06T05:13:07;4.50;;;2.97;;
14975;SDS011;7584;60.468;25.126;2023-04-06T05:15:32;6.47;;;3.20;;
14975;SDS011;7584;60.468;25.126;2023-04-06T05:18:00;8.77;;;2.80;;
14975;SDS011;7584;60.468;25.126;2023-04-06T05:20:25;5.37;;;2.43;;
14975;SDS011;7584;60.468;25.126;2023-04-06T05:22:50;28.03;;;3.73;;
14975;SDS011;7584;60.468;25.126;2023-04-06T05:25:16;5.30;;;2.60;;
14975;SDS011;7584;60.468;25.126;2023-04-06T05:27:41;3.90;;;2.20;;
14975;SDS011;7584;60.468;25.126;2023-04-06T05:30:07;8.37;;;3.37;;
14975;SDS011;7584;60.468;25.126;2023-04-06T05:32:32;4.03;;;2.53;;
14975;SDS011;7584;60.468;25.126;2023-04-06T05:34:58;6.20;;;2.67;;
14975;SDS011;7584;60.468;25.126;2023-04-06T05:37:23;7.03;;;2.80;;
14975;SDS011;7584;60.468;25.126;2023-04-06T05:39:48;6.33;;;2.90;;
14975;SDS011;7584;60.468;25.126;2023-04-06T05:42:14;4.43;;;2.67;;
14975;SDS011;7584;60.468;25.126;2023-04-06T05:44:40;7.40;;;2.80;;
14975;SDS011;7584;60.468;25.126;2023-04-06T05:47:05;6.13;;;2.70;;
14975;SDS011;7584;60.468;25.126;2023-04-06T05:49:31;5.27;;;2.67;;
14975;SDS011;7584;60.468;25.126;2023-04-06T05:51:56;4.27;;;2.70;;
14975;SDS011;7584;60.468;25.126;2023-04-06T05:54:21;10.30;;;2.87;;
14975;SDS011;7584;60.468;25.126;2023-04-06T05:56:47;7.87;;;2.90;;
14975;SDS011;7584;60.468;25.126;2023-04-06T05:59:12;7.60;;;3.10;;
14975;SDS011;7584;60.468;25.126;2023-04-06T06:01:37;7.47;;;2.70;;
14975;SDS011;7584;60.468;25.126;2023-04-06T06:04:03;6.27;;;2.77;;
14975;SDS011;7584;60.468;25.126;2023-04-06T06:06:28;5.63;;;2.73;;
14975;SDS011;7584;60.468;25.126;2023-04-06T06:08:57;4.87;;;2.50;;
14975;SDS011;7584;60.468;25.126;2023-04-06T06:11:26;9.90;;;2.80;;
14975;SDS011;7584;60.468;25.126;2023-04-06T06:13:51;5.40;;;2.63;;
14975;SDS011;7584;60.468;25.126;2023-04-06T06:16:17;5.67;;;3.27;;
14975;SDS011;7584;60.468;25.126;2023-04-06T06:18:42;6.07;;;2.63;;
14975;SDS011;7584;60.468;25.126;2023-04-06T06:21:07;8.87;;;2.70;;
14975;SDS011;7584;60.468;25.126;2023-04-06T06:23:33;6.93;;;2.43;;
14975;SDS011;7584;60.468;25.126;2023-04-06T06:25:58;4.60;;;2.50;;
14975;SDS011;7584;60.468;25.126;2023-04-06T06:28:23;3.43;;;2.67;;
14975;SDS011;7584;60.468;25.126;2023-04-06T06:30:50;7.97;;;2.90;;
14975;SDS011;7584;60.468;25.126;2023-04-06T06:33:15;5.33;;;2.40;;
14975;SDS011;7584;60.468;25.126;2023-04-06T06:35:40;3.60;;;2.40;;
14975;SDS011;7584;60.468;25.126;2023-04-06T06:38:06;6.63;;;2.57;;
14975;SDS011;7584;60.468;25.126;2023-04-06T06:40:31;4.43;;;2.77;;
14975;SDS011;7584;60.468;25.126;2023-04-06T06:42:56;7.43;;;3.10;;
14975;SDS011;7584;60.468;25.126;2023-04-06T06:45:22;8.73;;;2.43;;
14975;SDS011;7584;60.468;25.126;2023-04-06T06:47:47;5.83;;;2.13;;
14975;SDS011;7584;60.468;25.126;2023-04-06T06:50:12;4.33;;;2.33;;
14975;SDS011;7584;60.468;25.126;2023-04-06T06:52:38;9.13;;;2.37;;
14975;SDS011;7584;60.468;25.126;2023-04-06T06:55:04;3.60;;;2.17;;
14975;SDS011;7584;60.468;25.126;2023-04-06T06:57:30;7.63;;;2.50;;
14975;SDS011;7584;60.468;25.126;2023-04-06T06:59:55;7.43;;;2.20;;
14975;SDS011;7584;60.468;25.126;2023-04-06T07:02:21;4.20;;;2.57;;
14975;SDS011;7584;60.468;25.126;2023-04-06T07:04:49;4.17;;;2.40;;
14975;SDS011;7584;60.468;25.126;2023-04-06T07:07:14;4.33;;;2.10;;
14975;SDS011;7584;60.468;25.126;2023-04-06T07:09:40;8.60;;;2.37;;
14975;SDS011;7584;60.468;25.126;2023-04-06T07:12:05;5.13;;;1.80;;
14975;SDS011;7584;60.468;25.126;2023-04-06T07:14:31;8.20;;;2.60;;
14975;SDS011;7584;60.468;25.126;2023-04-06T07:16:57;8.03;;;1.70;;
14975;SDS011;7584;60.468;25.126;2023-04-06T07:19:22;2.03;;;1.83;;
14975;SDS011;7584;60.468;25.126;2023-04-06T07:21:47;3.07;;;1.93;;
14975;SDS011;7584;60.468;25.126;2023-04-06T07:24:14;3.90;;;1.80;;
14975;SDS011;7584;60.468;25.126;2023-04-06T07:26:39;3.47;;;1.83;;
14975;SDS011;7584;60.468;25.126;2023-04-06T07:29:05;7.97;;;2.00;;
14975;SDS011;7584;60.468;25.126;2023-04-06T07:31:30;2.53;;;1.93;;
14975;SDS011;7584;60.468;25.126;2023-04-06T07:33:56;3.23;;;1.70;;
14975;SDS011;7584;60.468;25.126;2023-04-06T07:36:21;5.60;;;2.10;;
14975;SDS011;7584;60.468;25.126;2023-04-06T07:38:46;3.93;;;2.13;;
14975;SDS011;7584;60.468;25.126;2023-04-06T07:41:12;7.97;;;2.17;;
14975;SDS011;7584;60.468;25.126;2023-04-06T07:43:37;4.67;;;2.07;;
14975;SDS011;7584;60.468;25.126;2023-04-06T07:46:03;4.13;;;2.10;;
14975;SDS011;7584;60.468;25.126;2023-04-06T07:48:28;3.83;;;2.40;;
14975;SDS011;7584;60.468;25.126;2023-04-06T07:51:00;4.17;;;1.90;;
14975;SDS011;7584;60.468;25.126;2023-04-06T07:53:25;6.10;;;2.20;;
14975;SDS011;7584;60.468;25.126;2023-04-06T07:55:50;4.23;;;2.23;;
14975;SDS011;7584;60.468;25.126;2023-04-06T07:58:16;3.43;;;1.87;;
14975;SDS011;7584;60.468;25.126;2023-04-06T08:00:41;1.67;;;1.53;;
14975;SDS011;7584;60.468;25.126;2023-04-06T08:03:06;7.93;;;2.10;;
14975;SDS011;7584;60.468;25.126;2023-04-06T08:05:32;3.33;;;2.10;;
14975;SDS011;7584;60.468;25.126;2023-04-06T08:07:57;2.83;;;1.87;;
14975;SDS011;7584;60.468;25.126;2023-04-06T08:10:22;2.80;;;1.80;;
14975;SDS011;7584;60.468;25.126;2023-04-06T08:12:48;6.47;;;2.07;;
14975;SDS011;7584;60.468;25.126;2023-04-06T08:15:13;4.77;;;2.07;;
14975;SDS011;7584;60.468;25.126;2023-04-06T08:17:38;6.93;;;2.50;;
14975;SDS011;7584;60.468;25.126;2023-04-06T08:20:04;7.00;;;2.77;;
14975;SDS011;7584;60.468;25.126;2023-04-06T08:22:29;3.30;;;2.20;;
14975;SDS011;7584;60.468;25.126;2023-04-06T08:24:55;4.00;;;1.93;;
14975;SDS011;7584;60.468;25.126;2023-04-06T08:27:20;3.97;;;1.97;;
14975;SDS011;7584;60.468;25.126;2023-04-06T08:29:45;5.37;;;2.13;;
14975;SDS011;7584;60.468;25.126;2023-04-06T08:32:11;6.77;;;2.20;;
14975;SDS011;7584;60.468;25.126;2023-04-06T08:34:36;4.27;;;2.03;;
14975;SDS011;7584;60.468;25.126;2023-04-06T08:37:02;6.13;;;2.43;;
14975;SDS011;7584;60.468;25.126;2023-04-06T08:39:27;6.47;;;2.20;;
14975;SDS011;7584;60.468;25.126;2023-04-06T08:41:53;4.43;;;2.43;;
14975;SDS011;7584;60.468;25.126;2023-04-06T08:44:22;4.07;;;2.53;;
14975;SDS011;7584;60.468;25.126;2023-04-06T08:46:47;7.33;;;2.30;;
14975;SDS011;7584;60.468;25.126;2023-04-06T08:49:13;3.50;;;1.83;;
14975;SDS011;7584;60.468;25.126;2023-04-06T08:51:39;4.37;;;2.17;;
14975;SDS011;7584;60.468;25.126;2023-04-06T08:54:04;4.33;;;2.10;;
14975;SDS011;7584;60.468;25.126;2023-04-06T08:56:30;4.80;;;2.20;;
14975;SDS011;7584;60.468;25.126;2023-04-06T08:58:55;4.60;;;2.50;;
14975;SDS011;7584;60.468;25.126;2023-04-06T09:01:21;6.37;;;3.03;;
14975;SDS011;7584;60.468;25.126;2023-04-06T09:03:48;11.67;;;3.37;;
14975;SDS011;7584;60.468;25.126;2023-04-06T09:06:14;5.17;;;2.60;;
14975;SDS011;7584;60.468;25.126;2023-04-06T09:08:39;4.57;;;2.37;;
14975;SDS011;7584;60.468;25.126;2023-04-06T09:11:05;6.43;;;2.83;;
14975;SDS011;7584;60.468;25.126;2023-04-06T09:13:31;7.03;;;2.83;;
14975;SDS011;7584;60.468;25.126;2023-04-06T09:16:02;4.03;;;2.37;;
14975;SDS011;7584;60.468;25.126;2023-04-06T09:18:32;3.37;;;2.20;;
14975;SDS011;7584;60.468;25.126;2023-04-06T09:20:58;7.40;;;2.83;;
14975;SDS011;7584;60.468;25.126;2023-04-06T09:23:23;6.50;;;2.40;;
14975;SDS011;7584;60.468;25.126;2023-04-06T09:25:49;4.73;;;2.27;;
14975;SDS011;7584;60.468;25.126;2023-04-06T09:28:14;4.13;;;2.30;;
14975;SDS011;7584;60.468;25.126;2023-04-06T09:30:47;3.83;;;2.30;;
14975;SDS011;7584;60.468;25.126;2023-04-06T09:33:12;6.17;;;2.60;;
14975;SDS011;7584;60.468;25.126;2023-04-06T09:35:38;3.30;;;2.10;;
14975;SDS011;7584;60.468;25.126;2023-04-06T09:38:10;3.87;;;1.97;;
14975;SDS011;7584;60.468;25.126;2023-04-06T09:40:36;7.00;;;2.90;;
14975;SDS011;7584;60.468;25.126;2023-04-06T09:43:01;3.07;;;2.20;;
14975;SDS011;7584;60.468;25.126;2023-04-06T09:45:29;9.50;;;2.50;;
14975;SDS011;7584;60.468;25.126;2023-04-06T09:47:55;3.60;;;2.63;;
14975;SDS011;7584;60.468;25.126;2023-04-06T09:50:21;2.90;;;2.17;;
14975;SDS011;7584;60.468;25.126;2023-04-06T09:52:48;4.87;;;2.60;;
14975;SDS011;7584;60.468;25.126;2023-04-06T09:55:20;8.37;;;2.63;;
14975;SDS011;7584;60.468;25.126;2023-04-06T09:58:04;7.43;;;2.50;;
14975;SDS011;7584;60.468;25.126;2023-04-06T10:00:29;3.93;;;2.13;;
14975;SDS011;7584;60.468;25.126;2023-04-06T10:05:42;4.33;;;2.33;;
14975;SDS011;7584;60.468;25.126;2023-04-06T10:08:09;3.60;;;1.90;;
14975;SDS011;7584;60.468;25.126;2023-04-06T10:10:35;4.93;;;1.73;;
14975;SDS011;7584;60.468;25.126;2023-04-06T10:13:00;6.20;;;2.20;;
14975;SDS011;7584;60.468;25.126;2023-04-06T10:15:29;3.67;;;1.63;;
14975;SDS011;7584;60.468;25.126;2023-04-06T10:17:55;5.70;;;1.60;;
14975;SDS011;7584;60.468;25.126;2023-04-06T10:20:22;3.83;;;1.50;;
14975;SDS011;7584;60.468;25.126;2023-04-06T10:25:32;6.07;;;2.60;;
14975;SDS011;7584;60.468;25.126;2023-04-06T10:27:58;2.17;;;1.90;;
14975;SDS011;7584;60.468;25.126;2023-04-06T10:30:24;5.37;;;1.57;;
14975;SDS011;7584;60.468;25.126;2023-04-06T10:32:49;3.67;;;2.00;;
14975;SDS011;7584;60.468;25.126;2023-04-06T10:35:15;4.43;;;1.90;;
14975;SDS011;7584;60.468;25.126;2023-04-06T10:37:51;4.07;;;2.50;;
14975;SDS011;7584;60.468;25.126;2023-04-06T10:42:45;1.97;;;1.60;;
14975;SDS011;7584;60.468;25.126;2023-04-06T10:45:20;6.23;;;1.87;;
14975;SDS011;7584;60.468;25.126;2023-04-06T10:47:46;2.13;;;1.80;;
14975;SDS011;7584;60.468;25.126;2023-04-06T10:50:13;6.07;;;1.67;;
14975;SDS011;7584;60.468;25.126;2023-04-06T10:52:39;2.67;;;2.13;;
14975;SDS011;7584;60.468;25.126;2023-04-06T10:55:05;2.97;;;1.90;;
14975;SDS011;7584;60.468;25.126;2023-04-06T10:57:30;8.20;;;2.10;;
14975;SDS011;7584;60.468;25.126;2023-04-06T10:59:57;5.30;;;2.40;;
14975;SDS011;7584;60.468;25.126;2023-04-06T11:02:23;6.60;;;2.33;;
14975;SDS011;7584;60.468;25.126;2023-04-06T11:04:57;2.53;;;1.80;;
14975;SDS011;7584;60.468;25.126;2023-04-06T11:07:23;3.70;;;2.30;;
14975;SDS011;7584;60.468;25.126;2023-04-06T11:09:49;3.77;;;2.03;;
14975;SDS011;7584;60.468;25.126;2023-04-06T11:12:25;4.43;;;2.03;;
14975;SDS011;7584;60.468;25.126;2023-04-06T11:14:57;4.10;;;2.03;;
14975;SDS011;7584;60.468;25.126;2023-04-06T11:17:32;2.23;;;1.80;;
14975;SDS011;7584;60.468;25.126;2023-04-06T11:19:58;4.57;;;2.20;;
14975;SDS011;7584;60.468;25.126;2023-04-06T11:22:24;2.63;;;1.70;;
14975;SDS011;7584;60.468;25.126;2023-04-06T11:24:49;3.27;;;2.00;;
14975;SDS011;7584;60.468;25.126;2023-04-06T11:27:15;4.93;;;2.17;;
14975;SDS011;7584;60.468;25.126;2023-04-06T11:29:41;2.90;;;2.03;;
14975;SDS011;7584;60.468;25.126;2023-04-06T11:32:06;7.17;;;2.43;;
14975;SDS011;7584;60.468;25.126;2023-04-06T11:34:36;2.40;;;1.70;;
14975;SDS011;7584;60.468;25.126;2023-04-06T11:37:07;4.30;;;2.20;;
14975;SDS011;7584;60.468;25.126;2023-04-06T11:42:28;3.03;;;2.20;;
14975;SDS011;7584;60.468;25.126;2023-04-06T11:44:57;6.00;;;2.40;;
14975;SDS011;7584;60.468;25.126;2023-04-06T11:47:29;5.00;;;2.07;;
14975;SDS011;7584;60.468;25.126;2023-04-06T11:49:55;5.17;;;2.10;;
14975;SDS011;7584;60.468;25.126;2023-04-06T11:52:25;8.60;;;2.37;;
14975;SDS011;7584;60.468;25.126;2023-04-06T11:54:51;3.33;;;2.00;;
14975;SDS011;7584;60.468;25.126;2023-04-06T11:57:17;7.37;;;2.13;;
14975;SDS011;7584;60.468;25.126;2023-04-06T11:59:43;2.60;;;1.93;;
14975;SDS011;7584;60.468;25.126;2023-04-06T12:02:09;3.70;;;2.10;;
14975;SDS011;7584;60.468;25.126;2023-04-06T12:04:35;3.03;;;1.90;;
14975;SDS011;7584;60.468;25.126;2023-04-06T12:07:00;4.73;;;2.10;;
14975;SDS011;7584;60.468;25.126;2023-04-06T12:09:25;4.67;;;1.90;;
14975;SDS011;7584;60.468;25.126;2023-04-06T12:11:51;4.77;;;1.87;;
14975;SDS011;7584;60.468;25.126;2023-04-06T12:14:16;3.60;;;2.30;;
14975;SDS011;7584;60.468;25.126;2023-04-06T12:16:41;3.07;;;1.77;;
14975;SDS011;7584;60.468;25.126;2023-04-06T12:19:07;2.47;;;1.90;;
14975;SDS011;7584;60.468;25.126;2023-04-06T12:21:35;4.15;;;1.77;;
14975;SDS011;7584;60.468;25.126;2023-04-06T12:24:04;5.57;;;2.20;;
14975;SDS011;7584;60.468;25.126;2023-04-06T12:26:30;6.97;;;1.75;;
14975;SDS011;7584;60.468;25.126;2023-04-06T12:28:56;3.33;;;2.15;;
14975;SDS011;7584;60.468;25.126;2023-04-06T12:31:21;4.45;;;1.90;;
14975;SDS011;7584;60.468;25.126;2023-04-06T12:33:47;4.72;;;1.90;;
14975;SDS011;7584;60.468;25.126;2023-04-06T12:36:13;3.47;;;1.92;;
14975;SDS011;7584;60.468;25.126;2023-04-06T12:38:40;11.45;;;2.25;;
14975;SDS011;7584;60.468;25.126;2023-04-06T12:41:06;4.88;;;2.50;;
14975;SDS011;7584;60.468;25.126;2023-04-06T12:43:32;7.47;;;2.20;;
14975;SDS011;7584;60.468;25.126;2023-04-06T12:45:57;3.42;;;2.15;;
14975;SDS011;7584;60.468;25.126;2023-04-06T12:48:22;5.50;;;1.90;;
14975;SDS011;7584;60.468;25.126;2023-04-06T12:50:54;5.47;;;1.90;;
14975;SDS011;7584;60.468;25.126;2023-04-06T12:53:20;3.67;;;2.07;;
14975;SDS011;7584;60.468;25.126;2023-04-06T12:55:45;5.10;;;1.83;;
14975;SDS011;7584;60.468;25.126;2023-04-06T12:58:11;8.07;;;2.57;;
14975;SDS011;7584;60.468;25.126;2023-04-06T13:00:36;4.00;;;2.10;;
14975;SDS011;7584;60.468;25.126;2023-04-06T13:03:01;5.00;;;2.23;;
14975;SDS011;7584;60.468;25.126;2023-04-06T13:05:27;5.70;;;2.00;;
14975;SDS011;7584;60.468;25.126;2023-04-06T13:07:52;2.67;;;2.00;;
14975;SDS011;7584;60.468;25.126;2023-04-06T13:10:17;8.70;;;2.53;;
14975;SDS011;7584;60.468;25.126;2023-04-06T13:12:43;3.92;;;2.00;;
14975;SDS011;7584;60.468;25.126;2023-04-06T13:15:08;5.43;;;2.20;;
14975;SDS011;7584;60.468;25.126;2023-04-06T13:17:34;4.70;;;2.15;;
14975;SDS011;7584;60.468;25.126;2023-04-06T13:19:59;3.35;;;2.17;;
14975;SDS011;7584;60.468;25.126;2023-04-06T13:22:24;5.40;;;2.10;;
14975;SDS011;7584;60.468;25.126;2023-04-06T13:24:50;5.95;;;2.38;;
14975;SDS011;7584;60.468;25.126;2023-04-06T13:27:15;4.90;;;2.60;;
14975;SDS011;7584;60.468;25.126;2023-04-06T13:29:41;3.33;;;1.70;;
14975;SDS011;7584;60.468;25.126;2023-04-06T13:32:06;3.37;;;1.77;;
14975;SDS011;7584;60.468;25.126;2023-04-06T13:34:32;3.50;;;2.23;;
14975;SDS011;7584;60.468;25.126;2023-04-06T13:36:57;3.07;;;2.00;;
14975;SDS011;7584;60.468;25.126;2023-04-06T13:39:23;6.43;;;2.10;;
14975;SDS011;7584;60.468;25.126;2023-04-06T13:41:48;8.40;;;2.00;;
14975;SDS011;7584;60.468;25.126;2023-04-06T13:44:13;4.57;;;2.37;;
14975;SDS011;7584;60.468;25.126;2023-04-06T13:46:39;10.17;;;2.57;;
14975;SDS011;7584;60.468;25.126;2023-04-06T13:49:04;22.23;;;3.30;;
14975;SDS011;7584;60.468;25.126;2023-04-06T13:51:30;2.90;;;2.10;;
14975;SDS011;7584;60.468;25.126;2023-04-06T13:53:55;5.87;;;1.93;;
14975;SDS011;7584;60.468;25.126;2023-04-06T13:56:21;9.20;;;2.10;;
14975;SDS011;7584;60.468;25.126;2023-04-06T13:58:46;4.27;;;2.30;;
14975;SDS011;7584;60.468;25.126;2023-04-06T14:01:11;3.40;;;1.80;;
14975;SDS011;7584;60.468;25.126;2023-04-06T14:03:37;4.13;;;1.80;;
14975;SDS011;7584;60.468;25.126;2023-04-06T14:06:11;3.40;;;2.10;;
14975;SDS011;7584;60.468;25.126;2023-04-06T14:08:37;2.40;;;1.87;;
14975;SDS011;7584;60.468;25.126;2023-04-06T14:11:02;4.63;;;2.10;;
14975;SDS011;7584;60.468;25.126;2023-04-06T14:13:27;4.60;;;2.00;;
14975;SDS011;7584;60.468;25.126;2023-04-06T14:15:53;5.20;;;1.90;;
14975;SDS011;7584;60.468;25.126;2023-04-06T14:18:20;4.93;;;1.87;;
14975;SDS011;7584;60.468;25.126;2023-04-06T14:20:52;5.70;;;2.30;;
14975;SDS011;7584;60.468;25.126;2023-04-06T14:23:18;6.20;;;2.43;;
14975;SDS011;7584;60.468;25.126;2023-04-06T14:25:43;3.80;;;2.10;;
14975;SDS011;7584;60.468;25.126;2023-04-06T14:28:08;8.40;;;2.80;;
14975;SDS011;7584;60.468;25.126;2023-04-06T14:30:34;4.33;;;2.17;;
14975;SDS011;7584;60.468;25.126;2023-04-06T14:32:59;6.40;;;2.33;;
14975;SDS011;7584;60.468;25.126;2023-04-06T14:35:24;2.57;;;2.00;;
14975;SDS011;7584;60.468;25.126;2023-04-06T14:37:50;3.10;;;2.00;;
14975;SDS011;7584;60.468;25.126;2023-04-06T14:40:15;3.73;;;2.13;;
14975;SDS011;7584;60.468;25.126;2023-04-06T14:42:41;4.67;;;2.33;;
14975;SDS011;7584;60.468;25.126;2023-04-06T14:45:06;3.90;;;2.13;;
14975;SDS011;7584;60.468;25.126;2023-04-06T14:47:32;2.30;;;2.10;;
14975;SDS011;7584;60.468;25.126;2023-04-06T14:49:57;5.70;;;2.20;;